createdAt,value
2023-02-23T00:02:29.430Z,100011.69
2023-02-23T00:05:36.914Z,100021.59
2023-02-23T00:08:41.108Z,100014.88
2023-02-23T00:11:45.799Z,100023.09
2023-02-23T00:14:47.590Z,100023.44
2023-02-23T00:17:49.288Z,100018.47
2023-02-23T00:20:57.586Z,100023.09
2023-02-23T00:24:02.322Z,100016.63
2023-02-23T00:27:06.711Z,100014.81
2023-02-23T00:30:10.439Z,100027.59
2023-02-23T00:33:12.965Z,100017.09
2023-02-23T00:36:15.620Z,100028.06
2023-02-23T00:39:21.731Z,100021.31
2023-02-23T00:42:24.090Z,100026.84
2023-02-23T00:45:26.336Z,100023.31
2023-02-23T00:48:28.747Z,100021.00
2023-02-23T00:51:31.170Z,100020.72
2023-02-23T00:54:35.044Z,100024.84
2023-02-23T00:57:36.814Z,100020.50
2023-02-23T01:00:42.222Z,100016.56
2023-02-23T01:03:44.667Z,100018.09
2023-02-23T01:06:46.585Z,100013.06
2023-02-23T01:09:49.789Z,100016.41
2023-02-23T01:12:54.752Z,100010.22
2023-02-23T01:15:57.949Z,100012.91
2023-02-23T01:19:03.722Z,100017.81
2023-02-23T01:22:05.837Z,100018.22
2023-02-23T01:25:12.302Z,100018.97
2023-02-23T01:28:14.226Z,100012.06
2023-02-23T01:31:16.460Z,100013.63
2023-02-23T01:34:21.524Z,100010.56
2023-02-23T01:37:23.306Z,100011.00
2023-02-23T01:40:31.360Z,100006.56
2023-02-23T01:43:33.494Z,99996.84
2023-02-23T01:46:50.977Z,100007.47
2023-02-23T01:49:52.627Z,100004.06
2023-02-23T01:52:55.484Z,100002.81
2023-02-23T01:56:03.769Z,100005.47
2023-02-23T01:59:07.997Z,99997.13
2023-02-23T02:02:10.705Z,99987.13
2023-02-23T02:05:14.817Z,99996.84
2023-02-23T02:08:25.505Z,99993.06
2023-02-23T02:11:38.301Z,99996.31
2023-02-23T02:14:42.021Z,99994.59
2023-02-23T02:17:53.858Z,99995.56
2023-02-23T02:21:29.166Z,99982.44
2023-02-23T02:25:02.824Z,99988.09
2023-02-23T02:28:42.328Z,99983.09
2023-02-23T02:32:21.178Z,99978.84
2023-02-23T02:35:53.789Z,99977.59
2023-02-23T02:39:10.787Z,99972.47
2023-02-23T02:42:22.960Z,99972.63
2023-02-23T02:45:33.132Z,99971.88
2023-02-23T02:48:46.232Z,99967.41
2023-02-23T02:51:57.020Z,99969.41
2023-02-23T02:55:13.855Z,99965.59
2023-02-23T02:58:20.422Z,99964.03
2023-02-23T03:01:53.278Z,99963.75
2023-02-23T03:05:17.238Z,99961.03
2023-02-23T03:08:46.963Z,99963.38
2023-02-23T03:12:22.656Z,99961.09
2023-02-23T03:16:11.159Z,99961.34
2023-02-23T03:19:38.969Z,99964.38
2023-02-23T03:23:12.552Z,99960.91
2023-02-23T03:26:42.648Z,99958.66
2023-02-23T03:30:12.111Z,99960.91
2023-02-23T03:33:42.697Z,99960.00
2023-02-23T03:37:06.967Z,99955.19
2023-02-23T03:40:34.730Z,99957.25
2023-02-23T03:44:03.532Z,99962.50
2023-02-23T03:47:31.612Z,99957.81
2023-02-23T03:51:01.287Z,99957.09
2023-02-23T03:54:26.843Z,99957.16
2023-02-23T03:57:58.395Z,99954.81
2023-02-23T04:01:26.357Z,99958.38
2023-02-23T04:04:50.897Z,99957.75
2023-02-23T04:08:29.719Z,99960.34
2023-02-23T04:11:59.059Z,99968.63
2023-02-23T04:15:09.669Z,99963.13
2023-02-23T04:18:14.323Z,99965.16
2023-02-23T04:21:20.126Z,99965.78
2023-02-23T04:24:24.980Z,99964.88
2023-02-23T04:27:31.012Z,99963.25
2023-02-23T04:30:35.768Z,99961.91
2023-02-23T04:33:38.697Z,99964.53
2023-02-23T04:36:43.325Z,99976.72
2023-02-23T04:39:49.873Z,99976.38
2023-02-23T04:42:55.909Z,99972.53
2023-02-23T04:46:00.144Z,99974.78
2023-02-23T04:49:05.639Z,99974.97
2023-02-23T04:52:10.759Z,99981.53
2023-02-23T04:55:18.805Z,99972.63
2023-02-23T04:58:23.752Z,99980.47
2023-02-23T05:01:27.959Z,99975.09
2023-02-23T05:04:33.721Z,99983.72
2023-02-23T05:07:40.356Z,99977.59
2023-02-23T05:10:44.252Z,99983.47
2023-02-23T05:13:48.958Z,99983.16
2023-02-23T05:16:54.058Z,99978.06
2023-02-23T05:19:57.883Z,99975.44
2023-02-23T05:23:03.740Z,99987.00
2023-02-23T05:26:12.117Z,99977.28
2023-02-23T05:29:16.956Z,99985.28
2023-02-23T05:32:20.744Z,99978.22
2023-02-23T05:35:55.027Z,99975.44
2023-02-23T05:44:30.016Z,99989.34
2023-02-23T05:58:44.007Z,99987.00
2023-02-23T06:02:00.420Z,99986.09
2023-02-23T06:05:04.569Z,99983.47
2023-02-23T06:14:22.626Z,99996.84
2023-02-23T06:18:09.124Z,99984.38
2023-02-23T06:21:16.012Z,99988.69
2023-02-23T06:40:00.596Z,100012.78
2023-02-23T06:43:11.234Z,100012.91
2023-02-23T06:46:13.676Z,100015.69
2023-02-23T06:49:17.211Z,100017.53
2023-02-23T06:52:20.872Z,100012.16
2023-02-23T06:55:24.895Z,100019.34
2023-02-23T06:58:28.445Z,100024.59
2023-02-23T07:01:31.356Z,100028.66
2023-02-23T07:04:35.076Z,100031.69
2023-02-23T07:07:38.204Z,100030.56
2023-02-23T07:10:42.823Z,100038.84
2023-02-23T07:13:45.797Z,100036.22
2023-02-23T07:16:49.225Z,100037.19
2023-02-23T07:19:52.120Z,100037.47
2023-02-23T07:22:56.506Z,100041.34
2023-02-23T07:26:01.138Z,100048.56
2023-02-23T07:29:03.825Z,100046.25
2023-02-23T07:32:08.352Z,100044.84
2023-02-23T07:35:12.050Z,100046.69
2023-02-23T07:38:16.152Z,100044.34
2023-02-23T07:41:20.925Z,100042.81
2023-02-23T07:44:24.429Z,100041.09
2023-02-23T07:47:31.403Z,100045.84
2023-02-23T07:50:34.717Z,100050.94
2023-02-23T07:53:39.616Z,100052.34
2023-02-23T07:56:42.978Z,100050.03
2023-02-23T07:59:44.917Z,100056.81
2023-02-23T08:02:47.254Z,100054.47
2023-02-23T08:05:49.802Z,100052.94
2023-02-23T08:08:53.275Z,100064.78
2023-02-23T08:11:58.169Z,100059.41
2023-02-23T08:15:01.547Z,100065.28
2023-02-23T08:18:05.398Z,100068.47
2023-02-23T08:21:08.180Z,100066.28
2023-02-23T08:24:11.048Z,100076.78
2023-02-23T08:27:17.525Z,100074.00
2023-02-23T08:30:23.975Z,100070.94
2023-02-23T08:33:32.628Z,100077.09
2023-02-23T08:36:40.937Z,100079.44
2023-02-23T08:39:44.402Z,100075.56
2023-02-23T08:43:14.254Z,100080.94
2023-02-23T08:46:22.254Z,100088.19
2023-02-23T08:49:27.291Z,100082.34
2023-02-23T08:52:31.891Z,100088.56
2023-02-23T08:55:35.701Z,100086.13
2023-02-23T08:58:41.141Z,100084.41
2023-02-23T09:01:43.701Z,100081.94
2023-02-23T09:04:46.042Z,100087.59
2023-02-23T09:07:49.372Z,100084.34
2023-02-23T09:10:52.299Z,100093.16
2023-02-23T09:13:56.471Z,100086.34
2023-02-23T09:16:59.408Z,100087.84
2023-02-23T09:20:02.266Z,100082.81
2023-02-23T09:23:05.237Z,100095.31
2023-02-23T09:26:09.293Z,100096.00
2023-02-23T09:29:13.789Z,100097.72
2023-02-23T09:32:16.979Z,100101.09
2023-02-23T09:35:21.576Z,100099.63
2023-02-23T09:38:24.938Z,100094.44
2023-02-23T09:41:47.099Z,100101.59
2023-02-23T09:45:04.642Z,100097.19
2023-02-23T09:48:16.916Z,100100.84
2023-02-23T09:51:22.824Z,100090.72
2023-02-23T09:54:29.578Z,100091.50
2023-02-23T09:57:38.380Z,100094.06
2023-02-23T10:00:47.198Z,100099.84
2023-02-23T10:03:56.307Z,100102.41
2023-02-23T10:07:06.280Z,100100.72
2023-02-23T10:10:21.624Z,100098.38
2023-02-23T10:13:35.358Z,100092.69
2023-02-23T10:16:51.605Z,100100.59
2023-02-23T10:20:04.280Z,100104.28
2023-02-23T10:23:17.227Z,100110.63
2023-02-23T10:26:27.481Z,100111.56
2023-02-23T10:29:40.177Z,100108.00
2023-02-23T10:33:00.812Z,100111.03
2023-02-23T10:36:24.310Z,100105.50
2023-02-23T10:39:33.622Z,100106.00
2023-02-23T10:42:38.671Z,100109.94
2023-02-23T10:46:05.871Z,100108.38
2023-02-23T10:49:23.126Z,100118.66
2023-02-23T10:52:31.597Z,100116.44
2023-02-23T10:55:35.431Z,100108.00
2023-02-23T10:58:43.581Z,100102.81
2023-02-23T11:02:00.971Z,100095.72
2023-02-23T11:05:27.727Z,100104.34
2023-02-23T11:08:48.864Z,100103.66
2023-02-23T11:12:08.921Z,100101.03
2023-02-23T11:15:39.635Z,100100.63
2023-02-23T11:18:54.732Z,100097.88
2023-02-23T11:21:58.134Z,100098.78
2023-02-23T11:25:03.856Z,100101.75
2023-02-23T11:28:05.595Z,100107.88
2023-02-23T11:31:19.284Z,100098.28
2023-02-23T11:34:28.028Z,100096.19
2023-02-23T11:37:32.476Z,100082.63
2023-02-23T11:40:34.892Z,100080.25
2023-02-23T11:43:36.675Z,100076.97
2023-02-23T11:46:39.688Z,100074.22
2023-02-23T11:49:45.722Z,100081.19
2023-02-23T11:52:53.182Z,100080.28
2023-02-23T11:55:59.168Z,100076.31
2023-02-23T11:59:05.282Z,100077.63
2023-02-23T12:02:22.907Z,100067.75
2023-02-23T12:05:26.668Z,100068.06
2023-02-23T12:08:37.187Z,100063.59
2023-02-23T12:11:48.660Z,100063.84
2023-02-23T12:15:10.117Z,100063.97
2023-02-23T12:18:22.972Z,100060.59
2023-02-23T12:21:51.644Z,100053.91
2023-02-23T12:25:02.259Z,100055.19
2023-02-23T12:28:18.818Z,100048.81
2023-02-23T12:31:28.408Z,100038.69
2023-02-23T12:34:37.789Z,100035.88
2023-02-23T12:37:42.964Z,100032.25
2023-02-23T12:40:47.381Z,100033.53
2023-02-23T12:43:53.938Z,100028.75
2023-02-23T12:47:00.667Z,100032.06
2023-02-23T12:50:13.553Z,100034.53
2023-02-23T12:53:22.336Z,100024.63
2023-02-23T12:56:45.656Z,100023.31
2023-02-23T13:00:31.485Z,100028.63
2023-02-23T13:03:57.143Z,100030.16
2023-02-23T13:07:05.796Z,100028.13
2023-02-23T13:10:16.089Z,100013.66
2023-02-23T13:13:38.300Z,100019.06
2023-02-23T13:16:44.888Z,100029.13
2023-02-23T13:19:53.048Z,100029.84
2023-02-23T13:23:01.172Z,100027.53
2023-02-23T13:26:18.946Z,100011.13
2023-02-23T13:29:34.139Z,100014.03
2023-02-23T13:32:37.818Z,100012.44
2023-02-23T13:35:40.271Z,100012.75
2023-02-23T13:39:02.995Z,100007.47
2023-02-23T13:42:21.178Z,100009.47
2023-02-23T13:45:32.350Z,100002.97
2023-02-23T13:48:56.021Z,100008.47
2023-02-23T13:52:23.102Z,100016.31
2023-02-23T13:55:49.966Z,100016.69
2023-02-23T13:58:57.644Z,100018.88
2023-02-23T14:02:06.498Z,100016.56
2023-02-23T14:05:18.567Z,100016.34
2023-02-23T14:08:27.526Z,100021.47
2023-02-23T14:11:46.039Z,100018.88
2023-02-23T14:14:48.031Z,100018.97
2023-02-23T14:17:58.019Z,100018.59
2023-02-23T14:21:12.447Z,100012.88
2023-02-23T14:24:18.008Z,100017.72
2023-02-23T14:27:39.722Z,100013.19
2023-02-23T14:30:50.765Z,100017.81
2023-02-23T14:33:57.387Z,100015.06
2023-02-23T14:37:14.112Z,100018.44
2023-02-23T14:40:20.938Z,100014.94
2023-02-23T14:43:42.473Z,100011.75
2023-02-23T14:46:56.939Z,100009.75
2023-02-23T14:50:02.077Z,100014.34
2023-02-23T14:53:05.583Z,100006.97
2023-02-23T14:56:18.448Z,100007.13
2023-02-23T14:59:22.831Z,100011.44
2023-02-23T15:02:26.470Z,100012.00
2023-02-23T15:05:31.599Z,100008.44
2023-02-23T15:08:38.356Z,100000.31
2023-02-23T15:11:43.634Z,100007.03
2023-02-23T15:16:16.550Z,100009.97
2023-02-23T15:19:40.570Z,100019.22
2023-02-23T15:22:49.466Z,100016.34
2023-02-23T15:25:54.189Z,100020.00
2023-02-23T15:29:10.011Z,100013.81
2023-02-23T15:32:21.508Z,100019.91
2023-02-23T15:35:28.955Z,100020.84
2023-02-23T15:38:43.759Z,100014.19
2023-02-23T15:41:51.251Z,100010.97
2023-02-23T15:44:58.729Z,100017.81
2023-02-23T15:48:09.815Z,100016.13
2023-02-23T15:51:37.920Z,100013.19
2023-02-23T15:54:54.534Z,100007.44
2023-02-23T15:58:16.105Z,100003.75
2023-02-23T16:01:26.714Z,100009.56
2023-02-23T16:04:36.045Z,100016.41
2023-02-23T16:07:43.429Z,100022.22
2023-02-23T16:10:49.723Z,100016.28
2023-02-23T16:13:54.531Z,100015.09
2023-02-23T16:21:37.965Z,100012.63
2023-02-23T16:24:42.815Z,100018.69
2023-02-23T16:27:55.058Z,100017.59
2023-02-23T16:31:00.625Z,100014.47
2023-02-23T16:34:04.026Z,100014.34
2023-02-23T16:37:17.957Z,100025.50
2023-02-23T16:40:19.706Z,100030.00
2023-02-23T16:43:22.756Z,100027.88
2023-02-23T16:46:28.650Z,100036.44
2023-02-23T16:49:31.249Z,100036.06
2023-02-23T16:52:33.278Z,100038.97
2023-02-23T16:55:39.289Z,100036.19
2023-02-23T16:58:45.714Z,100035.91
2023-02-23T17:01:49.763Z,100033.03
2023-02-23T17:04:52.655Z,100036.31
2023-02-23T17:07:58.310Z,100041.97
2023-02-23T17:11:01.403Z,100039.72
2023-02-23T17:14:04.602Z,100037.88
2023-02-23T17:17:06.356Z,100039.59
2023-02-23T17:20:15.728Z,100048.66
2023-02-23T17:23:17.964Z,100049.56
2023-02-23T17:26:23.462Z,100052.44
2023-02-23T17:29:27.248Z,100049.69
2023-02-23T17:32:50.834Z,100046.66
2023-02-23T17:35:53.083Z,100051.16
2023-02-23T17:38:58.778Z,100057.41
2023-02-23T17:42:00.776Z,100056.50
2023-02-23T17:45:06.591Z,100056.75
2023-02-23T17:48:08.344Z,100053.69
2023-02-23T17:51:12.632Z,100055.16
2023-02-23T17:54:14.655Z,100052.75
2023-02-23T17:57:16.961Z,100054.59
2023-02-23T18:00:20.560Z,100046.69
2023-02-23T18:03:23.151Z,100040.09
2023-02-23T18:06:25.062Z,100053.38
2023-02-23T18:09:27.863Z,100047.59
2023-02-23T18:12:30.402Z,100046.53
2023-02-23T18:15:33.448Z,100056.56
2023-02-23T18:18:36.154Z,100049.59
2023-02-23T18:21:40.842Z,100049.53
2023-02-23T18:24:42.557Z,100041.00
2023-02-23T18:27:44.414Z,100050.53
2023-02-23T18:30:47.618Z,100055.84
2023-02-23T18:33:52.789Z,100046.69
2023-02-23T18:36:55.644Z,100051.63
2023-02-23T18:39:59.269Z,100052.81
2023-02-23T18:43:01.148Z,100053.88
2023-02-23T18:46:07.073Z,100046.25
2023-02-23T18:49:13.505Z,100044.91
2023-02-23T18:52:15.350Z,100047.78
2023-02-23T18:55:18.953Z,100044.72
2023-02-23T18:58:20.750Z,100038.56
2023-02-23T19:01:26.638Z,100039.66
2023-02-23T19:04:28.645Z,100042.53
2023-02-23T19:07:31.023Z,100041.34
2023-02-23T19:10:34.058Z,100051.03
2023-02-23T19:13:38.064Z,100037.16
2023-02-23T19:16:42.603Z,100037.59
2023-02-23T19:19:44.290Z,100043.03
2023-02-23T19:22:46.458Z,100037.47
2023-02-23T19:25:49.123Z,100037.69
2023-02-23T19:28:51.069Z,100032.50
2023-02-23T19:31:54.780Z,100024.19
2023-02-23T19:34:56.604Z,100031.53
2023-02-23T19:37:58.918Z,100035.63
2023-02-23T19:41:00.950Z,100034.00
2023-02-23T19:44:02.687Z,100033.72
2023-02-23T19:47:05.975Z,100034.22
2023-02-23T19:50:09.808Z,100039.06
2023-02-23T19:53:11.625Z,100042.69
2023-02-23T19:56:16.510Z,100046.22
2023-02-23T19:59:18.114Z,100045.31
2023-02-23T20:02:21.347Z,100055.22
2023-02-23T20:05:23.977Z,100046.44
2023-02-23T20:08:26.670Z,100045.88
2023-02-23T20:11:29.875Z,100050.97
2023-02-23T20:14:32.713Z,100052.47
2023-02-23T20:17:36.281Z,100047.06
2023-02-23T20:20:39.164Z,100056.09
2023-02-23T20:23:41.961Z,100062.88
2023-02-23T20:26:44.148Z,100067.72
2023-02-23T20:29:47.653Z,100076.84
2023-02-23T20:32:53.558Z,100074.72
2023-02-23T20:35:55.380Z,100080.31
2023-02-23T20:38:57.057Z,100074.97
2023-02-23T20:41:59.034Z,100071.50
2023-02-23T20:45:01.525Z,100068.72
2023-02-23T20:48:04.899Z,100069.50
2023-02-23T20:51:08.558Z,100058.69
2023-02-23T20:54:12.149Z,100059.31
2023-02-23T20:57:13.888Z,100064.13
2023-02-23T21:00:23.972Z,100068.91
2023-02-23T21:03:27.477Z,100068.28
2023-02-23T21:06:30.755Z,100076.16
2023-02-23T21:09:32.869Z,100072.00
2023-02-23T21:12:35.658Z,100070.72
2023-02-23T21:15:38.862Z,100061.03
2023-02-23T21:18:42.596Z,100061.44
2023-02-23T21:21:46.278Z,100070.56
2023-02-23T21:24:48.143Z,100070.28
2023-02-23T21:27:50.468Z,100063.31
2023-02-23T21:30:53.092Z,100074.31
2023-02-23T21:33:56.870Z,100074.03
2023-02-23T21:36:59.199Z,100072.16
2023-02-23T21:40:01.026Z,100074.66
2023-02-23T21:43:08.686Z,100070.19
2023-02-23T21:46:12.689Z,100068.84
2023-02-23T21:49:16.422Z,100068.66
2023-02-23T21:52:18.189Z,100061.59
2023-02-23T21:55:21.592Z,100072.13
2023-02-23T21:58:23.709Z,100060.72
2023-02-23T22:01:30.998Z,100067.50
2023-02-23T22:04:35.772Z,100065.38
2023-02-23T22:07:38.106Z,100063.81
2023-02-23T22:10:39.857Z,100065.22
2023-02-23T22:13:45.241Z,100062.31
2023-02-23T22:16:47.735Z,100063.22
2023-02-23T22:19:53.759Z,100062.94
2023-02-23T22:22:55.480Z,100060.31
2023-02-23T22:25:59.214Z,100068.94
2023-02-23T22:29:01.075Z,100059.91
2023-02-23T22:32:03.085Z,100069.47
2023-02-23T22:35:07.240Z,100065.78
2023-02-23T22:38:08.997Z,100067.66
2023-02-23T22:41:14.687Z,100056.44
2023-02-23T22:44:18.720Z,100055.97
2023-02-23T22:47:20.597Z,100055.81
2023-02-23T22:50:23.690Z,100060.91
2023-02-23T22:53:26.209Z,100064.34
2023-02-23T22:56:28.068Z,100064.19
2023-02-23T22:59:30.521Z,100064.63
2023-02-23T23:02:32.489Z,100061.44
2023-02-23T23:05:35.674Z,100067.09
2023-02-23T23:08:40.746Z,100065.91
2023-02-23T23:11:42.973Z,100064.50
2023-02-23T23:14:45.377Z,100059.88
2023-02-23T23:17:50.111Z,100048.78
2023-02-23T23:20:55.310Z,100050.50
2023-02-23T23:23:58.663Z,100042.50
2023-02-23T23:27:00.931Z,100036.94
2023-02-23T23:30:05.504Z,100039.53
2023-02-23T23:33:07.694Z,100037.25
2023-02-23T23:36:11.756Z,100033.41
2023-02-23T23:39:18.149Z,100036.50
2023-02-23T23:42:20.268Z,100030.34
2023-02-23T23:45:24.261Z,100030.47
2023-02-23T23:48:26.439Z,100041.09
2023-02-23T23:51:31.718Z,100030.97
2023-02-23T23:54:38.582Z,100024.50
2023-02-23T23:57:41.386Z,100012.03
